Terminal Aerodrome Forecast
Issued by NWS

Home | Current Version | Previous Version | Text Only | Print | Product List | Glossary On
Versions: 1 2 3 4 5 6 7 8 9 10 11 12 13 14
000
FTUS45 KREV 191127
TAFMMH
TAF
KMMH 191127Z 1912/2012 00000KT P6SM FEW002 BKN150
     FM191400 24007KT P6SM BKN140 WS020/24040KT
     FM191900 23011G20KT P6SM VCSH SCT040 BKN070 OVC100
     FM200300 24011KT 5SM -RASN BKN025 OVC040
     FM200900 29008KT 6SM -RA SCT020 OVC040=

USA.gov is the U.S. government's official web portal to all federal, state and local government web resources and services.